Goldengate, Illinois
Current Conditions -  °F | °C
As of 8:15 AM on Sunday 25 Jan 2015 (Local Time) from KFWC Reporting Station
Moderate Rain Moderate Rain  
Wind Chill: 37°   Ceiling: 4300
Heat Index: 40°   Visibility: 10mi
Dew Point: 37°   Wind: 5mph
Humidity: 86%   Direction: 180°S
Pressure: 29.63"   Gusts: NA
Location:  38.361°N, 88.2031°W
Report Text: KFWC 251415Z AUTO 18004KT 10SM RA BKN043 OVC049 05/03 A2963 RMK AO1 T00460025
Loading
Personal Weather Stations






























Interactive Weather Map New forecast layout! Learn more

10-Day Weather Forecast

Advertisements
Track Severe Weather on mobile